Time;durP1;ratioP1;P1;durP2;ratioP2;P2;SDS_P1;SDS_P2;PMS_P1;PMS_P2;Temp;Humidity;BMP_temperature;BMP_pressure;BME280_temperature;BME280_humidity;BME280_pressure;Samples;Min_cycle;Max_cycle;Signal;HPM_P1;HPM_P2
2021/07/13 00:00:35;;;;;;;7.00;3.97;;;23.20;77.70;;;;;;2240691;56;20966;-73
2021/07/13 00:03:03;;;;;;;5.72;3.70;;;23.20;77.70;;;;;;2216982;55;21030;-73
2021/07/13 00:05:37;;;;;;;4.72;3.35;;;23.10;77.70;;;;;;2226696;56;20971;-73
2021/07/13 00:08:06;;;;;;;7.53;4.12;;;23.20;77.80;;;;;;2228920;57;21215;-73
2021/07/13 00:10:36;;;;;;;7.30;5.45;;;23.20;77.80;;;;;;2223302;56;21031;-74
2021/07/13 00:13:02;;;;;;;7.87;5.53;;;23.20;77.80;;;;;;2229990;57;20947;-75
2021/07/13 00:15:34;;;;;;;6.75;4.80;;;23.20;77.90;;;;;;2332619;56;20934;-73
2021/07/13 00:18:01;;;;;;;6.72;4.87;;;23.20;77.70;;;;;;2230011;56;20955;-73
2021/07/13 00:20:27;;;;;;;6.87;4.80;;;23.20;77.70;;;;;;2220634;57;21031;-73
2021/07/13 00:22:56;;;;;;;5.85;4.00;;;23.20;77.70;;;;;;2232120;57;21832;-73
2021/07/13 00:25:26;;;;;;;4.60;3.03;;;23.10;77.60;;;;;;2266392;56;20959;-72
2021/07/13 00:27:52;;;;;;;4.82;3.10;;;23.10;77.60;;;;;;2224168;57;20942;-73
2021/07/13 00:30:19;;;;;;;4.25;3.10;;;23.10;77.50;;;;;;2258946;56;20969;-73
2021/07/13 00:32:46;;;;;;;5.03;3.15;;;23.10;77.50;;;;;;2241401;56;21495;-73
2021/07/13 00:35:12;;;;;;;4.65;3.17;;;23.10;77.50;;;;;;2226566;57;21439;-73
2021/07/13 00:37:41;;;;;;;4.53;2.62;;;23.10;77.60;;;;;;2230449;57;21085;-72
2021/07/13 00:40:08;;;;;;;4.32;2.95;;;23.10;77.60;;;;;;2229095;57;20985;-74
2021/07/13 00:42:34;;;;;;;4.87;3.28;;;23.10;77.60;;;;;;2228876;56;20997;-74
2021/07/13 00:45:01;;;;;;;4.87;2.37;;;23.10;77.60;;;;;;2442016;56;20978;-73
2021/07/13 00:47:27;;;;;;;5.20;3.00;;;23.10;77.50;;;;;;2379938;56;21003;-75
2021/07/13 00:49:54;;;;;;;6.47;3.72;;;23.00;77.50;;;;;;2232318;56;20995;-74
2021/07/13 00:52:21;;;;;;;4.72;2.95;;;23.00;77.50;;;;;;2228819;57;21033;-73
2021/07/13 00:54:47;;;;;;;5.20;2.78;;;23.00;77.50;;;;;;2227216;57;21174;-74
2021/07/13 00:57:16;;;;;;;6.72;3.45;;;23.00;77.50;;;;;;2210532;57;20970;-75
2021/07/13 00:59:43;;;;;;;5.03;2.40;;;23.00;77.50;;;;;;2231362;57;21066;-74
2021/07/13 01:02:10;;;;;;;4.55;2.92;;;23.00;77.70;;;;;;2229060;57;21057;-73
2021/07/13 01:04:38;;;;;;;4.07;2.80;;;23.00;77.80;;;;;;2254006;56;21789;-74
2021/07/13 01:08:42;;;;;;;6.30;3.35;;;23.00;77.80;;;;;;2224893;56;21007;-75
2021/07/13 01:11:31;;;;;;;5.47;2.37;;;23.00;77.70;;;;;;2241872;56;21506;-74
2021/07/13 01:14:12;;;;;;;3.15;1.95;;;22.90;77.50;;;;;;2213730;57;21034;-74
2021/07/13 01:16:51;;;;;;;7.47;2.62;;;22.90;77.50;;;;;;2293402;57;21534;-74
2021/07/13 01:25:12;;;;;;;4.22;2.80;;;22.90;77.70;;;;;;2230077;57;21074;-74
2021/07/13 01:28:39;;;;;;;3.08;1.77;;;22.90;76.90;;;;;;2212533;57;21118;-75
2021/07/13 01:31:11;;;;;;;3.55;1.90;;;22.80;76.00;;;;;;2226854;57;21467;-75
2021/07/13 01:33:38;;;;;;;2.90;1.67;;;22.70;75.40;;;;;;2311031;56;21839;-75
2021/07/13 01:36:47;;;;;;;2.60;1.30;;;22.60;74.90;;;;;;2260735;56;21088;-74
2021/07/13 01:39:14;;;;;;;3.50;1.80;;;22.50;74.60;;;;;;2210729;57;20946;-74
2021/07/13 01:41:40;;;;;;;2.97;1.73;;;22.40;75.00;;;;;;2229458;57;20990;-74
2021/07/13 01:44:06;;;;;;;3.33;1.65;;;22.30;75.20;;;;;;2226315;56;21034;-75
2021/07/13 01:46:33;;;;;;;4.65;2.12;;;22.20;75.40;;;;;;2228178;57;20999;-75
2021/07/13 01:48:59;;;;;;;4.20;1.80;;;22.20;75.70;;;;;;2228407;56;20991;-74
2021/07/13 01:51:26;;;;;;;3.10;1.65;;;22.10;75.80;;;;;;2227936;57;21038;-74
2021/07/13 01:53:53;;;;;;;2.62;1.40;;;22.00;75.70;;;;;;2227994;57;21043;-75
2021/07/13 01:56:20;;;;;;;3.75;1.58;;;21.90;75.50;;;;;;2346337;56;20959;-74
2021/07/13 01:58:47;;;;;;;2.50;1.37;;;21.90;75.60;;;;;;2224772;57;20946;-75
2021/07/13 02:01:19;;;;;;;2.95;1.40;;;21.80;75.80;;;;;;2230918;56;20975;-74
2021/07/13 02:03:47;;;;;;;3.05;1.20;;;21.70;75.60;;;;;;2275297;56;21040;-75
2021/07/13 02:06:16;;;;;;;2.33;1.30;;;21.70;75.80;;;;;;2213535;57;20978;-74
2021/07/13 02:08:44;;;;;;;2.75;1.40;;;21.60;75.80;;;;;;2227272;57;21805;-74
2021/07/13 02:11:11;;;;;;;4.30;1.50;;;21.60;76.00;;;;;;2227750;57;21087;-74
2021/07/13 02:13:39;;;;;;;2.55;1.40;;;21.50;75.80;;;;;;2226327;56;20959;-75
2021/07/13 02:16:06;;;;;;;3.55;1.60;;;21.50;75.90;;;;;;2223589;57;20930;-74
2021/07/13 02:18:33;;;;;;;4.15;1.33;;;21.40;75.90;;;;;;2233134;56;21011;-74
2021/07/13 02:20:59;;;;;;;2.70;1.27;;;21.30;75.80;;;;;;2330243;56;21067;-74
2021/07/13 02:23:25;;;;;;;2.65;1.48;;;21.30;75.90;;;;;;2251409;56;21033;-74
2021/07/13 02:25:58;;;;;;;2.75;1.58;;;21.20;76.10;;;;;;2229324;57;21689;-74
2021/07/13 02:28:59;;;;;;;2.90;1.60;;;21.20;76.30;;;;;;2226391;57;20981;-74
2021/07/13 02:31:32;;;;;;;3.10;1.70;;;21.20;76.20;;;;;;2370033;56;21014;-74
2021/07/13 02:34:32;;;;;;;3.67;1.80;;;21.20;76.90;;;;;;2224181;57;20946;-74
2021/07/13 02:37:00;;;;;;;2.55;1.33;;;21.20;77.10;;;;;;2297278;57;21019;-74
2021/07/13 02:39:27;;;;;;;2.50;1.30;;;21.10;77.10;;;;;;2373765;56;21007;-74
2021/07/13 02:41:54;;;;;;;2.25;1.08;;;21.10;77.30;;;;;;2223865;57;21023;-75
2021/07/13 02:44:21;;;;;;;4.40;1.55;;;21.10;77.30;;;;;;2211329;57;21007;-73
2021/07/13 02:46:50;;;;;;;3.50;1.67;;;21.10;77.30;;;;;;2219430;57;21563;-75
2021/07/13 02:49:20;;;;;;;3.45;1.77;;;21.10;77.40;;;;;;2219444;57;21003;-75
2021/07/13 02:51:46;;;;;;;2.87;1.42;;;21.10;76.90;;;;;;2332922;56;21109;-74
2021/07/13 02:54:14;;;;;;;2.70;1.50;;;21.00;76.90;;;;;;2228097;56;21005;-75
2021/07/13 02:56:40;;;;;;;2.85;1.60;;;21.00;77.00;;;;;;2393899;56;21065;-75
2021/07/13 02:59:07;;;;;;;2.45;1.30;;;21.00;77.10;;;;;;2225755;57;21670;-75
2021/07/13 03:01:35;;;;;;;2.50;1.40;;;21.00;77.20;;;;;;2229975;57;21074;-74
2021/07/13 03:04:02;;;;;;;2.90;1.55;;;21.00;77.20;;;;;;2228292;57;21903;-74
2021/07/13 03:06:30;;;;;;;2.53;1.30;;;20.90;78.00;;;;;;2269059;56;20974;-75
2021/07/13 03:08:56;;;;;;;2.85;1.17;;;20.90;77.40;;;;;;2229779;57;20958;-74
2021/07/13 03:11:23;;;;;;;2.47;1.35;;;20.90;77.40;;;;;;2395071;56;20991;-75
2021/07/13 03:13:49;;;;;;;3.05;1.70;;;20.90;77.50;;;;;;2344780;56;21412;-74
2021/07/13 03:16:15;;;;;;;3.10;1.48;;;20.90;77.60;;;;;;2230334;57;20991;-74
2021/07/13 03:18:42;;;;;;;2.80;1.40;;;20.90;77.70;;;;;;2440864;56;21079;-76
2021/07/13 03:21:09;;;;;;;2.50;1.42;;;20.90;77.60;;;;;;2230275;57;20931;-75
2021/07/13 03:23:37;;;;;;;2.80;1.67;;;20.80;77.50;;;;;;2415630;56;20991;-74
2021/07/13 03:26:04;;;;;;;4.32;1.67;;;20.80;77.40;;;;;;2223133;57;21015;-74
2021/07/13 03:28:30;;;;;;;3.47;1.55;;;20.80;77.50;;;;;;2226501;57;20939;-74
2021/07/13 03:31:00;;;;;;;5.25;1.77;;;20.80;77.60;;;;;;2232624;57;21845;-75
2021/07/13 03:33:27;;;;;;;4.80;1.75;;;20.70;77.60;;;;;;2214693;57;21044;-75
2021/07/13 03:35:54;;;;;;;3.28;1.77;;;20.70;77.70;;;;;;2422589;56;20937;-75
2021/07/13 03:38:22;;;;;;;3.72;1.30;;;20.70;77.70;;;;;;2219799;56;20983;-75
2021/07/13 03:40:49;;;;;;;2.95;1.50;;;20.70;77.70;;;;;;2404811;56;21094;-76
2021/07/13 03:43:16;;;;;;;2.30;1.23;;;20.70;77.90;;;;;;2227270;57;20943;-76
2021/07/13 03:45:43;;;;;;;2.35;1.23;;;20.70;78.00;;;;;;2232851;57;21039;-76
2021/07/13 03:48:10;;;;;;;3.05;1.33;;;20.70;78.10;;;;;;2219233;57;21952;-75
2021/07/13 03:50:36;;;;;;;3.83;1.60;;;20.70;78.10;;;;;;2226784;57;20987;-75
2021/07/13 03:53:04;;;;;;;3.08;1.40;;;20.70;78.20;;;;;;2228891;57;20947;-75
2021/07/13 03:55:31;;;;;;;3.78;1.50;;;20.60;78.00;;;;;;2440502;56;21054;-75
2021/07/13 03:58:00;;;;;;;2.67;1.40;;;20.60;78.10;;;;;;2222565;57;20970;-75
2021/07/13 04:00:32;;;;;;;2.53;1.20;;;20.60;78.30;;;;;;2229434;56;20983;-75
2021/07/13 04:03:01;;;;;;;3.15;1.25;;;20.60;78.30;;;;;;2226763;57;20935;-75
2021/07/13 04:05:28;;;;;;;2.60;1.33;;;20.60;78.20;;;;;;2253163;56;20980;-75
2021/07/13 04:07:55;;;;;;;2.80;1.35;;;20.60;78.20;;;;;;2213055;57;21040;-75
2021/07/13 04:10:22;;;;;;;2.65;1.10;;;20.60;78.30;;;;;;2219521;57;20987;-75
2021/07/13 04:12:48;;;;;;;2.30;1.20;;;20.60;78.40;;;;;;2231302;57;21002;-75
2021/07/13 04:15:14;;;;;;;2.33;1.10;;;20.60;78.60;;;;;;2212986;57;20918;-75
2021/07/13 04:17:42;;;;;;;2.75;1.30;;;20.60;78.60;;;;;;2385211;56;20959;-75
2021/07/13 04:20:10;;;;;;;3.10;1.23;;;20.50;78.30;;;;;;2394689;56;20999;-75
2021/07/13 04:22:36;;;;;;;2.33;1.15;;;20.50;78.40;;;;;;2254208;56;21103;-75
2021/07/13 04:25:04;;;;;;;1.92;0.95;;;20.50;78.40;;;;;;2227756;57;20951;-75
2021/07/13 04:27:31;;;;;;;2.33;1.10;;;20.50;78.40;;;;;;2229927;57;20937;-75
2021/07/13 04:29:57;;;;;;;2.72;1.08;;;20.50;78.50;;;;;;2223393;57;21014;-75
2021/07/13 04:32:24;;;;;;;2.65;1.20;;;20.50;78.50;;;;;;2441130;56;21086;-75
2021/07/13 04:34:50;;;;;;;2.42;1.10;;;20.50;78.60;;;;;;2227226;57;21754;-75
2021/07/13 04:37:16;;;;;;;2.47;1.15;;;20.50;78.70;;;;;;2226014;57;21778;-75
2021/07/13 04:39:45;;;;;;;2.45;1.10;;;20.50;78.80;;;;;;2220978;56;20957;-75
2021/07/13 04:42:11;;;;;;;2.92;1.15;;;20.50;78.90;;;;;;2228954;57;21026;-75
2021/07/13 04:44:40;;;;;;;2.65;1.20;;;20.50;78.90;;;;;;2337885;56;20962;-75
2021/07/13 04:47:06;;;;;;;2.40;1.40;;;20.50;78.80;;;;;;2227431;57;20998;-76
2021/07/13 04:49:33;;;;;;;3.22;1.52;;;20.50;78.70;;;;;;2226927;57;21026;-76
2021/07/13 04:52:00;;;;;;;3.50;1.60;;;20.50;78.40;;;;;;2228242;57;20994;-77
2021/07/13 04:54:30;;;;;;;3.20;1.90;;;20.50;78.10;;;;;;2248098;56;21015;-77
2021/07/13 04:57:07;;;;;;;2.78;1.35;;;20.40;77.80;;;;;;2253675;56;22446;-76
2021/07/13 04:59:33;;;;;;;4.65;1.55;;;20.40;77.80;;;;;;2250847;56;20954;-76
2021/07/13 05:02:00;;;;;;;3.00;1.50;;;20.40;77.90;;;;;;2210107;57;20974;-76
2021/07/13 05:04:26;;;;;;;2.90;1.50;;;20.30;77.80;;;;;;2230604;57;20915;-76
2021/07/13 05:06:53;;;;;;;3.20;1.50;;;20.30;77.90;;;;;;2226827;57;20971;-76
2021/07/13 05:09:20;;;;;;;2.75;1.37;;;20.30;77.90;;;;;;2227176;57;21997;-77
2021/07/13 05:11:46;;;;;;;2.67;1.40;;;20.30;78.20;;;;;;2229586;57;21066;-77
2021/07/13 05:14:13;;;;;;;2.58;1.27;;;20.30;78.20;;;;;;2313168;56;20967;-77
2021/07/13 05:16:39;;;;;;;2.08;1.05;;;20.30;78.30;;;;;;2227491;57;20970;-77
2021/07/13 05:19:09;;;;;;;1.80;0.90;;;20.20;78.40;;;;;;2227121;56;21047;-77
2021/07/13 05:21:35;;;;;;;2.40;1.10;;;20.20;78.50;;;;;;2377953;55;21447;-76
2021/07/13 05:24:01;;;;;;;1.95;1.00;;;20.30;78.50;;;;;;2228848;57;21070;-76
2021/07/13 05:26:28;;;;;;;2.58;1.00;;;20.20;78.60;;;;;;2227219;57;21012;-75
2021/07/13 05:28:54;;;;;;;4.30;1.10;;;20.20;78.60;;;;;;2216626;57;21082;-76
2021/07/13 05:31:20;;;;;;;2.03;0.90;;;20.20;78.50;;;;;;2228357;56;21082;-76
2021/07/13 05:33:48;;;;;;;1.75;0.80;;;20.20;78.30;;;;;;2221044;57;20978;-76
2021/07/13 05:36:14;;;;;;;1.50;0.70;;;20.20;78.30;;;;;;2210492;57;20970;-75
2021/07/13 05:38:42;;;;;;;2.00;0.70;;;20.20;78.40;;;;;;2327065;56;20990;-76
2021/07/13 05:41:08;;;;;;;1.90;0.82;;;20.20;78.50;;;;;;2227678;56;21011;-75
2021/07/13 05:43:35;;;;;;;1.98;0.70;;;20.20;78.40;;;;;;2322365;56;21014;-75
2021/07/13 05:46:02;;;;;;;1.90;1.00;;;20.10;78.40;;;;;;2244767;56;20998;-76
2021/07/13 05:48:28;;;;;;;3.03;1.00;;;20.10;78.50;;;;;;2230265;57;21026;-75
2021/07/13 05:50:57;;;;;;;2.92;0.80;;;20.10;78.60;;;;;;2226440;57;21090;-75
2021/07/13 05:53:24;;;;;;;1.67;0.68;;;20.10;78.50;;;;;;2226691;57;21066;-75
2021/07/13 05:55:52;;;;;;;1.35;0.57;;;20.10;78.60;;;;;;2226415;57;21009;-75
2021/07/13 05:58:20;;;;;;;2.17;0.40;;;20.10;78.70;;;;;;2222749;56;21170;-75
2021/07/13 06:00:49;;;;;;;1.58;0.60;;;20.00;78.60;;;;;;2349108;56;21037;-75
2021/07/13 06:03:16;;;;;;;1.83;0.50;;;20.00;78.50;;;;;;2228740;57;21806;-75
2021/07/13 06:05:44;;;;;;;0.60;0.30;;;20.00;78.30;;;;;;2229865;57;21137;-75
2021/07/13 06:08:10;;;;;;;1.33;0.50;;;20.00;78.40;;;;;;2211539;57;20994;-76
2021/07/13 06:10:36;;;;;;;1.45;0.57;;;20.00;78.50;;;;;;2223250;56;20978;-74
2021/07/13 06:13:03;;;;;;;1.35;0.62;;;20.00;78.10;;;;;;2355397;56;21902;-75
2021/07/13 06:15:29;;;;;;;1.33;0.50;;;19.90;78.00;;;;;;2227462;57;21042;-75
2021/07/13 06:17:56;;;;;;;0.95;0.40;;;19.90;77.90;;;;;;2296342;56;21018;-75
2021/07/13 06:20:23;;;;;;;0.70;0.25;;;19.90;77.80;;;;;;2229823;57;21106;-75
2021/07/13 06:22:49;;;;;;;1.45;0.60;;;19.80;77.50;;;;;;2227704;57;21014;-75
2021/07/13 06:25:16;;;;;;;1.27;0.43;;;19.70;77.00;;;;;;2315345;56;21031;-74
2021/07/13 06:27:42;;;;;;;3.85;0.40;;;19.70;77.10;;;;;;2429635;56;20987;-75
2021/07/13 06:30:09;;;;;;;1.37;0.50;;;19.70;77.20;;;;;;2379204;56;21471;-75
2021/07/13 06:32:35;;;;;;;0.55;0.22;;;19.60;77.30;;;;;;2220769;57;21022;-74
2021/07/13 06:35:01;;;;;;;0.40;0.20;;;19.60;77.30;;;;;;2205318;57;20995;-75
2021/07/13 06:37:28;;;;;;;0.88;0.30;;;19.50;77.30;;;;;;2226956;57;21027;-74
2021/07/13 06:39:54;;;;;;;0.40;0.20;;;19.50;77.30;;;;;;2226711;57;20927;-74
2021/07/13 06:42:20;;;;;;;1.58;0.30;;;19.40;77.20;;;;;;2230086;57;21022;-74
2021/07/13 06:44:47;;;;;;;0.65;0.20;;;19.40;77.20;;;;;;2228053;57;20958;-75
2021/07/13 06:47:14;;;;;;;0.40;0.20;;;19.30;77.10;;;;;;2230416;57;21071;-74
2021/07/13 06:49:40;;;;;;;2.15;0.30;;;19.30;77.00;;;;;;2223514;57;21721;-74
2021/07/13 06:52:08;;;;;;;0.35;0.10;;;19.20;77.10;;;;;;2226852;57;20986;-74
2021/07/13 06:54:34;;;;;;;0.68;0.25;;;19.20;77.10;;;;;;2288340;56;21741;-74
2021/07/13 06:57:00;;;;;;;0.30;0.20;;;19.20;77.10;;;;;;2431286;56;21032;-75
2021/07/13 06:59:28;;;;;;;0.60;0.20;;;19.10;77.40;;;;;;2219211;57;21000;-74
2021/07/13 07:01:57;;;;;;;0.95;0.20;;;19.10;77.70;;;;;;2253573;56;20930;-75
2021/07/13 07:04:24;;;;;;;0.10;0.10;;;19.00;78.00;;;;;;2328766;56;20959;-74
2021/07/13 07:06:50;;;;;;;1.45;0.30;;;19.00;78.10;;;;;;2351843;56;21525;-75
2021/07/13 07:09:17;;;;;;;0.30;0.30;;;19.00;78.10;;;;;;2225258;57;21005;-74
2021/07/13 07:11:46;;;;;;;1.02;0.30;;;19.00;78.10;;;;;;2236633;56;21820;-76
2021/07/13 07:14:13;;;;;;;0.90;0.40;;;19.00;78.20;;;;;;2227333;57;21027;-74
2021/07/13 07:16:39;;;;;;;1.75;0.85;;;19.00;78.20;;;;;;2227474;57;20990;-74
2021/07/13 07:19:06;;;;;;;1.48;0.30;;;19.00;78.60;;;;;;2328772;56;20955;-74
2021/07/13 07:21:32;;;;;;;0.75;0.30;;;19.00;78.80;;;;;;2226335;57;20992;-74
2021/07/13 07:23:59;;;;;;;0.75;0.28;;;19.00;78.70;;;;;;2230276;57;20955;-74
2021/07/13 07:26:25;;;;;;;0.32;0.22;;;19.00;78.70;;;;;;2230547;56;20966;-74
2021/07/13 07:28:52;;;;;;;1.50;0.30;;;19.00;78.90;;;;;;2432833;56;20991;-74
2021/07/13 07:31:21;;;;;;;1.05;0.40;;;19.00;79.10;;;;;;2226548;56;21416;-74
2021/07/13 07:33:48;;;;;;;1.15;0.30;;;19.00;79.40;;;;;;2213236;57;20959;-73
2021/07/13 07:36:17;;;;;;;0.98;0.30;;;19.10;79.60;;;;;;2224722;57;20974;-74
2021/07/13 07:38:43;;;;;;;0.73;0.32;;;19.10;79.60;;;;;;2230046;57;20971;-75
2021/07/13 07:41:13;;;;;;;1.10;0.30;;;19.10;79.80;;;;;;2237990;56;21735;-75
2021/07/13 07:43:40;;;;;;;0.93;0.40;;;19.10;79.90;;;;;;2230720;57;21049;-74
2021/07/13 07:46:07;;;;;;;0.98;0.30;;;19.20;80.80;;;;;;2222185;57;20959;-75
2021/07/13 07:48:33;;;;;;;0.75;0.30;;;19.20;80.00;;;;;;2230257;57;21003;-74
2021/07/13 07:51:02;;;;;;;2.17;0.50;;;19.20;80.00;;;;;;2218942;57;21002;-74
2021/07/13 07:53:30;;;;;;;1.08;0.40;;;19.30;79.80;;;;;;2260395;56;20951;-74
2021/07/13 07:55:56;;;;;;;0.10;0.10;;;19.30;79.50;;;;;;2223672;57;21334;-75
2021/07/13 07:58:26;;;;;;;1.45;0.40;;;19.30;79.20;;;;;;2227878;57;21844;-75
2021/07/13 08:00:53;;;;;;;0.50;0.30;;;19.30;78.70;;;;;;2215781;57;21333;-74
2021/07/13 08:03:20;;;;;;;1.90;0.45;;;19.30;78.50;;;;;;2208095;57;20988;-74
2021/07/13 08:05:46;;;;;;;0.80;0.40;;;19.30;78.60;;;;;;2222396;57;20947;-74
2021/07/13 08:08:13;;;;;;;0.98;0.45;;;19.30;78.30;;;;;;2324069;56;20971;-75
2021/07/13 08:10:41;;;;;;;1.02;0.40;;;19.20;77.90;;;;;;2208954;57;21066;-74
2021/07/13 08:13:08;;;;;;;1.37;0.30;;;19.20;78.00;;;;;;2226283;57;21040;-74
2021/07/13 08:15:34;;;;;;;1.40;0.40;;;19.20;78.10;;;;;;2358080;56;20939;-74
2021/07/13 08:18:00;;;;;;;1.95;0.40;;;19.20;78.10;;;;;;2230753;57;20983;-75
2021/07/13 08:20:33;;;;;;;0.88;0.35;;;19.10;77.80;;;;;;2219298;57;20974;-74
2021/07/13 08:22:59;;;;;;;1.45;0.60;;;19.10;77.50;;;;;;2227228;57;21886;-76
2021/07/13 08:25:26;;;;;;;0.80;0.35;;;19.10;77.40;;;;;;2312545;56;20942;-76
2021/07/13 08:27:52;;;;;;;1.50;0.60;;;19.00;77.10;;;;;;2212267;56;21018;-75
2021/07/13 08:30:20;;;;;;;1.25;0.60;;;18.90;76.80;;;;;;2223458;57;20954;-75
2021/07/13 08:32:46;;;;;;;1.52;0.70;;;18.90;76.80;;;;;;2208149;57;21144;-75
2021/07/13 08:35:12;;;;;;;1.65;0.70;;;18.80;76.90;;;;;;2229786;56;20994;-74
2021/07/13 08:37:39;;;;;;;1.62;0.68;;;18.80;77.00;;;;;;2292434;56;21902;-74
2021/07/13 08:40:09;;;;;;;1.55;0.60;;;18.80;76.90;;;;;;2211875;56;20989;-75
2021/07/13 08:42:40;;;;;;;1.48;0.60;;;18.70;76.70;;;;;;2224451;56;21039;-75
2021/07/13 08:45:19;;;;;;;1.50;0.70;;;18.70;77.00;;;;;;2229654;57;21871;-77
2021/07/13 08:47:46;;;;;;;1.40;0.60;;;18.60;76.90;;;;;;2227099;57;20992;-76
2021/07/13 08:50:13;;;;;;;1.50;0.60;;;18.50;77.00;;;;;;2215134;57;21038;-76
2021/07/13 08:52:39;;;;;;;1.08;0.60;;;18.50;77.10;;;;;;2228348;56;21017;-76
2021/07/13 08:55:09;;;;;;;0.95;0.50;;;18.40;77.20;;;;;;2296084;56;21479;-75
2021/07/13 08:57:39;;;;;;;2.03;0.52;;;18.40;77.40;;;;;;2226565;57;20974;-75
2021/07/13 09:00:07;;;;;;;4.07;0.50;;;18.30;77.50;;;;;;2211813;57;21031;-76
2021/07/13 09:02:33;;;;;;;1.27;0.50;;;18.30;77.70;;;;;;2232154;57;20978;-76
2021/07/13 09:05:00;;;;;;;1.75;0.60;;;18.30;77.50;;;;;;2292444;56;21969;-75
2021/07/13 09:07:30;;;;;;;1.08;0.47;;;18.20;77.60;;;;;;2228766;57;21090;-76
2021/07/13 09:10:04;;;;;;;2.25;0.50;;;18.20;77.70;;;;;;2442589;56;21082;-76
2021/07/13 09:12:31;;;;;;;0.88;0.40;;;18.20;77.80;;;;;;2233578;57;20978;-76
2021/07/13 09:15:01;;;;;;;1.05;0.47;;;18.10;77.90;;;;;;2229234;57;20997;-74
2021/07/13 09:17:34;;;;;;;1.00;0.45;;;18.10;77.90;;;;;;2213263;57;20989;-75
2021/07/13 09:20:24;;;;;;;0.85;0.32;;;18.10;78.00;;;;;;2223233;57;22490;-75
2021/07/13 09:23:01;;;;;;;0.40;0.25;;;18.10;78.10;;;;;;2286736;56;20955;-75
2021/07/13 09:25:32;;;;;;;1.17;0.50;;;18.10;78.20;;;;;;2229564;57;20955;-74
2021/07/13 09:28:17;;;;;;;0.80;0.30;;;18.00;78.30;;;;;;2317497;56;20966;-75
2021/07/13 09:30:59;;;;;;;1.15;0.37;;;18.10;78.20;;;;;;2206370;57;21012;-75
2021/07/13 09:33:27;;;;;;;0.60;0.25;;;18.00;78.20;;;;;;2225312;57;21053;-76
2021/07/13 09:36:14;;;;;;;1.58;0.60;;;18.00;78.40;;;;;;2230001;57;21991;-76
2021/07/13 09:38:54;;;;;;;0.65;0.30;;;18.00;78.30;;;;;;2369649;56;20979;-76
2021/07/13 09:41:25;;;;;;;1.20;0.40;;;18.10;78.80;;;;;;2224710;57;20955;-76
2021/07/13 09:44:01;;;;;;;0.93;0.30;;;18.00;78.90;;;;;;2214537;56;20973;-75
2021/07/13 09:46:46;;;;;;;1.62;0.50;;;18.10;79.00;;;;;;2211029;56;21037;-76
2021/07/13 09:49:32;;;;;;;1.00;0.35;;;18.10;79.00;;;;;;2426403;56;21534;-75
2021/07/13 09:52:08;;;;;;;1.35;0.50;;;18.20;79.10;;;;;;2299845;56;20955;-76
2021/07/13 09:54:38;;;;;;;2.03;0.30;;;18.10;79.20;;;;;;2240943;56;21047;-75
2021/07/13 09:57:24;;;;;;;1.02;0.40;;;18.20;79.40;;;;;;2384639;56;20998;-75
2021/07/13 09:59:56;;;;;;;0.95;0.43;;;18.20;79.20;;;;;;2242946;56;21784;-75
2021/07/13 10:02:25;;;;;;;0.77;0.40;;;18.20;79.30;;;;;;2238134;56;21022;-77
2021/07/13 10:04:52;;;;;;;0.80;0.30;;;18.30;79.50;;;;;;2243614;56;21772;-76
2021/07/13 10:07:20;;;;;;;1.10;0.40;;;18.30;79.20;;;;;;2241978;56;21090;-76
2021/07/13 10:09:54;;;;;;;1.05;0.43;;;18.30;79.20;;;;;;2291048;56;20983;-76
2021/07/13 10:12:23;;;;;;;0.80;0.30;;;18.30;79.00;;;;;;2359723;56;20967;-77
2021/07/13 10:14:55;;;;;;;0.93;0.40;;;18.40;78.80;;;;;;2245005;56;21054;-76
2021/07/13 10:17:26;;;;;;;1.03;0.43;;;18.40;78.40;;;;;;2238123;56;20958;-76
2021/07/13 10:20:04;;;;;;;1.23;0.60;;;18.40;78.40;;;;;;2248529;55;21227;-76
2021/07/13 10:22:32;;;;;;;1.33;0.50;;;18.40;78.00;;;;;;2231351;55;20995;-77
2021/07/13 10:25:02;;;;;;;1.20;0.50;;;18.40;78.20;;;;;;2239062;56;20946;-77
2021/07/13 10:27:32;;;;;;;1.95;0.50;;;18.40;78.20;;;;;;2323553;56;21026;-76
2021/07/13 10:30:00;;;;;;;1.95;0.57;;;18.40;78.20;;;;;;2243053;55;20995;-76
2021/07/13 10:32:30;;;;;;;2.25;0.60;;;18.40;78.30;;;;;;2264959;56;21559;-75
2021/07/13 10:34:59;;;;;;;1.10;0.40;;;18.40;78.40;;;;;;2395636;56;21063;-76
2021/07/13 10:37:35;;;;;;;1.60;0.65;;;18.40;78.70;;;;;;2267835;56;21547;-76
2021/07/13 10:40:12;;;;;;;1.10;0.37;;;18.40;78.70;;;;;;2243928;56;21009;-76
2021/07/13 10:42:46;;;;;;;1.33;0.43;;;18.40;78.90;;;;;;2233814;55;21014;-75
2021/07/13 10:45:43;;;;;;;1.00;0.50;;;18.40;79.00;;;;;;2245419;55;20977;-76
2021/07/13 10:48:16;;;;;;;1.77;0.70;;;18.50;79.20;;;;;;2240291;56;21521;-75
2021/07/13 10:50:54;;;;;;;1.55;0.43;;;18.50;79.00;;;;;;2244649;56;21024;-76
2021/07/13 10:53:24;;;;;;;1.45;0.60;;;18.50;79.20;;;;;;2456321;55;20957;-76
2021/07/13 10:56:06;;;;;;;2.03;0.70;;;18.50;79.30;;;;;;2271018;56;20999;-76
2021/07/13 10:58:52;;;;;;;1.73;0.75;;;18.50;79.10;;;;;;2261322;55;20987;-75
2021/07/13 11:01:33;;;;;;;2.37;0.70;;;18.50;78.80;;;;;;2275772;55;20998;-76
2021/07/13 11:04:13;;;;;;;1.87;0.80;;;18.50;78.60;;;;;;2246506;55;20963;-76
2021/07/13 11:06:58;;;;;;;1.33;0.68;;;18.50;78.40;;;;;;2302394;56;20962;-75
2021/07/13 11:09:27;;;;;;;1.12;0.60;;;18.50;78.40;;;;;;2239525;56;20991;-76
2021/07/13 11:12:13;;;;;;;1.45;0.60;;;18.50;78.70;;;;;;2403956;55;20999;-75
2021/07/13 11:14:52;;;;;;;1.73;0.60;;;18.60;79.10;;;;;;2423326;55;21034;-76
2021/07/13 11:17:20;;;;;;;1.60;0.70;;;18.60;79.20;;;;;;2239422;56;21779;-75
2021/07/13 11:19:46;;;;;;;1.95;0.70;;;18.60;79.40;;;;;;2240340;56;20918;-77
2021/07/13 11:22:16;;;;;;;2.08;0.88;;;18.60;79.10;;;;;;2326517;56;20973;-77
2021/07/13 11:24:43;;;;;;;1.85;0.75;;;18.60;78.60;;;;;;2434512;55;25007;-75
2021/07/13 11:27:12;;;;;;;1.92;0.85;;;18.60;79.00;;;;;;2251800;55;21029;-75
2021/07/13 11:29:49;;;;;;;2.08;0.82;;;18.60;79.30;;;;;;2338596;55;21508;-76
2021/07/13 11:32:18;;;;;;;1.98;0.90;;;18.60;78.90;;;;;;2251613;55;20994;-76
2021/07/13 11:34:45;;;;;;;1.52;0.70;;;18.70;79.40;;;;;;2356613;56;20951;-76
2021/07/13 11:37:11;;;;;;;2.08;0.93;;;18.70;79.50;;;;;;2245784;55;21072;-76
2021/07/13 11:39:39;;;;;;;1.85;0.88;;;18.70;79.40;;;;;;2247797;55;21044;-76
2021/07/13 11:42:07;;;;;;;2.17;1.10;;;18.80;79.40;;;;;;2249929;55;21099;-76
2021/07/13 11:44:34;;;;;;;1.80;0.80;;;18.80;79.50;;;;;;2240284;56;21010;-75
2021/07/13 11:47:01;;;;;;;1.98;0.95;;;18.80;79.80;;;;;;2243552;56;21018;-76
2021/07/13 11:49:28;;;;;;;2.12;1.15;;;18.90;80.50;;;;;;2231530;56;21054;-76
2021/07/13 11:52:00;;;;;;;2.47;1.08;;;18.90;79.40;;;;;;2239995;56;21058;-74
2021/07/13 11:54:28;;;;;;;1.70;0.88;;;19.00;79.20;;;;;;2243894;56;21142;-75
2021/07/13 11:56:55;;;;;;;1.87;0.90;;;19.00;79.20;;;;;;2252103;55;21564;-75
2021/07/13 11:59:23;;;;;;;1.73;0.80;;;19.00;79.20;;;;;;2338238;55;21014;-75
2021/07/13 12:01:57;;;;;;;2.25;0.98;;;18.90;79.10;;;;;;2256809;55;20969;-75
2021/07/13 12:04:24;;;;;;;2.60;1.00;;;19.00;79.30;;;;;;2239735;56;21100;-75
2021/07/13 12:06:53;;;;;;;1.80;0.75;;;19.00;79.20;;;;;;2253725;55;21610;-76
2021/07/13 12:09:39;;;;;;;2.40;1.10;;;19.00;79.10;;;;;;2288507;55;21014;-76
2021/07/13 12:12:13;;;;;;;2.00;0.93;;;19.00;78.80;;;;;;2240381;56;21051;-75
2021/07/13 12:14:42;;;;;;;1.70;0.88;;;19.10;78.90;;;;;;2223037;56;21092;-75
2021/07/13 12:17:10;;;;;;;1.60;0.75;;;19.10;79.10;;;;;;2242872;56;21074;-75
2021/07/13 12:19:38;;;;;;;2.75;0.80;;;19.10;79.40;;;;;;2267352;55;21051;-75
2021/07/13 12:22:07;;;;;;;1.50;0.80;;;19.10;79.20;;;;;;2251662;55;21065;-75
2021/07/13 12:24:41;;;;;;;1.83;0.80;;;19.10;79.20;;;;;;2241188;56;21051;-76
2021/07/13 12:27:11;;;;;;;2.10;0.93;;;19.20;79.00;;;;;;2234559;55;21038;-75
2021/07/13 12:29:41;;;;;;;1.62;0.80;;;19.20;78.40;;;;;;2236768;56;20965;-75
2021/07/13 12:32:20;;;;;;;1.80;0.80;;;19.20;78.40;;;;;;2370869;55;20998;-74
2021/07/13 12:34:47;;;;;;;2.20;1.05;;;19.20;78.30;;;;;;2244210;56;20974;-74
2021/07/13 12:37:18;;;;;;;1.70;0.73;;;19.20;78.40;;;;;;2222758;56;21003;-75
2021/07/13 12:39:48;;;;;;;1.77;0.80;;;19.20;78.50;;;;;;2347797;56;20978;-74
2021/07/13 12:42:20;;;;;;;2.10;1.00;;;19.20;78.50;;;;;;2384858;55;21819;-74
2021/07/13 12:44:50;;;;;;;2.00;1.00;;;19.20;78.80;;;;;;2237884;56;20958;-75
2021/07/13 12:47:50;;;;;;;1.55;0.80;;;19.20;79.00;;;;;;2270322;55;20927;-74
2021/07/13 12:50:35;;;;;;;2.42;1.02;;;19.30;79.30;;;;;;2245331;55;21089;-74
2021/07/13 12:53:12;;;;;;;2.30;0.80;;;19.30;79.60;;;;;;2360678;56;20962;-75
2021/07/13 12:55:49;;;;;;;1.67;0.73;;;19.40;80.00;;;;;;2220684;57;21010;-74
2021/07/13 12:58:25;;;;;;;1.87;0.80;;;19.40;80.00;;;;;;2245217;56;21061;-75
2021/07/13 13:00:53;;;;;;;2.20;0.88;;;19.50;79.80;;;;;;2325179;55;21034;-74
2021/07/13 13:03:27;;;;;;;1.90;0.82;;;19.50;80.00;;;;;;2247430;55;21019;-75
2021/07/13 13:05:59;;;;;;;2.45;0.98;;;19.60;79.90;;;;;;2242008;56;21027;-74
2021/07/13 13:08:42;;;;;;;1.87;0.90;;;19.70;80.30;;;;;;2247279;55;20963;-74